Buoy 32974

sailwx.info

Track history (hours):
 
Tides and Currents Weather Stations Pressure Air Temp Water Temp Dewpoint Dewpoint Depression Visibility Wind Speed Wind Dir Waves Ship Positions

Drifting buoy 32974

Last reported at 2017-Sep-22 19:00 UTC. Time now 2017-Sep-22 20:40 UTC.
Position N 11°11' W 138°07'.

Water temperature 28.4 ° C

Date/timePositionNaut miles runAvg speedWind from/ knotsBaromVisibWave heightAir tempDewpointWater temp
2017-Sep-22 19:00N 11°11' W 138°07'2 2.4 28.4
2017-Sep-22 18:00N 11°08' W 138°07'0 0.0 28.2
2017-Sep-22 17:00N 11°08' W 138°07'1 1.3 28.1
2017-Sep-22 16:00N 11°07' W 138°07'2 1.7 28.1
2017-Sep-22 15:00N 11°06' W 138°05'1 0.7 28.1
2017-Sep-22 13:00N 11°05' W 138°04'5 4.7 28.1
2017-Sep-22 12:00N 11°05' W 137°59'2 0.4 28.2
2017-Sep-22 07:00N 11°05' W 137°58'2 0.9 28.2
2017-Sep-22 05:00N 11°05' W 137°56'2 1.9 28.3
2017-Sep-22 04:00N 11°05' W 137°54'0 0.0 28.3
2017-Sep-22 03:00N 11°05' W 137°54'2 2.4 28.3
2017-Sep-22 02:00N 11°06' W 137°52'1 0.8 28.4
2017-Sep-22 01:00N 11°05' W 137°51'2 1.7 28.4
2017-Sep-22 00:00N 11°07' W 137°50'6 5.6 28.4
2017-Sep-21 23:00N 11°10' W 137°45'0 0.0 28.4
2017-Sep-21 19:00N 11°10' W 137°45'2 1.7 28.2
2017-Sep-21 18:00N 11°11' W 137°44'1 0.8 28.2
2017-Sep-21 17:00N 11°11' W 137°43'1 1.3 28.2
2017-Sep-21 16:00N 11°13' W 137°43'2 2.2 28.2
2017-Sep-21 15:00N 11°14' W 137°41'0 0.0 28.2
2017-Sep-21 14:00N 11°14' W 137°41'2 1.9 28.2
2017-Sep-21 13:00N 11°16' W 137°41'5 5.4 28.1
2017-Sep-21 12:00N 11°22' W 137°41'0 0.0 28.1
2017-Sep-21 07:00N 11°22' W 137°41'1 1.2 28.2
2017-Sep-21 06:00N 11°23' W 137°41'0 0.0 28.2
2017-Sep-21 05:00N 11°23' W 137°41'2 1.9 28.2
2017-Sep-21 04:00N 11°25' W 137°41'2 1.7 28.3
2017-Sep-21 03:00N 11°26' W 137°43'0 0.0 28.3
2017-Sep-21 02:00N 11°26' W 137°43'1 1.2 28.3
2017-Sep-21 01:00N 11°27' W 137°43'0 0.0
2017-Sep-21 00:00N 11°27' W 137°43'3 3.0 28.3
2017-Sep-20 23:00N 11°29' W 137°44'1 0.1 28.3
2017-Sep-20 19:00N 11°29' W 137°44'2 1.7 28.2
2017-Sep-20 18:00N 11°31' W 137°45'0 0.0 28.2
2017-Sep-20 17:00N 11°31' W 137°45'1 0.6 28.1
2017-Sep-20 16:00N 11°31' W 137°45'1 1.3 28.1
2017-Sep-20 15:00N 11°32' W 137°46'1 0.6 28.1
2017-Sep-20 14:00N 11°32' W 137°46'1 1.2 28.1
2017-Sep-20 13:00N 11°32' W 137°47'1 1.2 28.1
2017-Sep-20 12:00N 11°32' W 137°49'2 0.5 28.1
2017-Sep-20 07:00N 11°33' W 137°51'1 1.3 28.2
2017-Sep-20 06:00N 11°32' W 137°52'0 0.0 28.2
2017-Sep-20 05:00N 11°32' W 137°52'0 0.0 28.2
2017-Sep-20 04:00N 11°32' W 137°52'2 1.7 28.3
2017-Sep-20 03:00N 11°31' W 137°53'0 0.0 28.3
2017-Sep-20 02:00N 11°31' W 137°53'3 3.4 28.4
2017-Sep-20 01:00N 11°29' W 137°56'4 4.3 28.4
2017-Sep-20 00:00N 11°26' W 137°59'0 0.0 28.4
2017-Sep-19 20:00N 11°26' W 137°59'0 0.0 28.1
2017-Sep-19 19:00N 11°26' W 137°59'1 0.8 28.1
2017-Sep-19 18:00N 11°25' W 137°58'1 0.6 28.1
2017-Sep-19 17:00N 11°25' W 137°58'1 0.6 28.1
2017-Sep-19 16:00N 11°25' W 137°58'1 1.3 28.1
2017-Sep-19 15:00N 11°23' W 137°57'0 0.0 28.1
2017-Sep-19 14:00N 11°23' W 137°57'0 0.0 28.1
2017-Sep-19 13:00N 11°23' W 137°57'3 3.0 28.1
2017-Sep-19 12:00N 11°20' W 137°57'1 0.1 28.1
2017-Sep-19 07:00N 11°20' W 137°56'0 0.0 28.1
2017-Sep-19 06:00N 11°20' W 137°56'1 0.6 28.1
2017-Sep-19 05:00N 11°20' W 137°56'1 0.8 28.1
2017-Sep-19 04:00N 11°21' W 137°55'0 0.0 28.1
2017-Sep-19 03:00N 11°21' W 137°55'1 0.8 28.1
2017-Sep-19 02:00N 11°20' W 137°56'0 0.0 28.1
2017-Sep-19 01:00N 11°20' W 137°56'2 1.7 28.1
2017-Sep-19 00:00N 11°22' W 137°57'2 2.1 28.1
2017-Sep-18 23:00N 11°20' W 137°55'3 0.6 28.1
2017-Sep-18 19:00N 11°22' W 137°57'2 1.9 28.0
2017-Sep-18 18:00N 11°23' W 137°59'0 0.0 28.1
2017-Sep-18 17:00N 11°23' W 137°59'3 1.6 28.1
2017-Sep-18 15:00N 11°24' W 138°02'0 0.0 28.1
2017-Sep-18 14:00N 11°24' W 138°02'1 1.2 28.1
2017-Sep-18 13:00N 11°24' W 138°03'0 0.0 28.1
2017-Sep-18 12:00N 11°24' W 138°03'5 1.4 28.1
2017-Sep-18 08:00N 11°25' W 138°08'1 1.2 28.2
2017-Sep-18 07:00N 11°25' W 138°10'1 0.6 28.3
2017-Sep-18 06:00N 11°25' W 138°09'2 1.8 28.3
2017-Sep-18 05:00N 11°25' W 138°11'3 2.9 28.3
2017-Sep-18 04:00N 11°25' W 138°14'3 3.0 28.3
2017-Sep-18 03:00N 11°25' W 138°17'0 0.0 28.3
2017-Sep-18 02:00N 11°25' W 138°17'2 1.1 28.4
2017-Sep-18 00:00N 11°23' W 138°19'8 2.0 28.4
2017-Sep-17 20:00N 11°18' W 138°25'2 1.7 28.4
2017-Sep-17 19:00N 11°17' W 138°26'3 3.5 28.4
2017-Sep-17 18:00N 11°14' W 138°28'3 1.7 28.3
2017-Sep-17 16:00N 11°11' W 138°29'0 0.0 28.3
2017-Sep-17 15:00N 11°11' W 138°29'0 0.0 28.3
2017-Sep-17 14:00N 11°11' W 138°29'2 2.2 28.3
2017-Sep-17 13:00N 11°09' W 138°31'2 1.9 28.4
2017-Sep-17 12:00N 11°07' W 138°30'4 0.7 28.4
2017-Sep-17 07:00N 11°04' W 138°31'1 0.8 28.5
2017-Sep-17 06:00N 11°03' W 138°30'0 0.0 28.5
2017-Sep-17 05:00N 11°03' W 138°30'0 0.0 28.5
2017-Sep-17 04:00N 11°03' W 138°30'1 0.6 28.5
2017-Sep-17 03:00N 11°02' W 138°30'1 0.8 28.4
2017-Sep-17 02:00N 11°03' W 138°29'1 0.6 28.4
2017-Sep-17 01:00N 11°03' W 138°30'3 2.7 28.5
2017-Sep-17 00:00N 11°05' W 138°29'1 0.1 28.4
2017-Sep-16 19:00N 11°05' W 138°28'2 2.5 28.5
2017-Sep-16 18:00N 11°08' W 138°29'2 0.6 28.6
2017-Sep-16 15:00N 11°08' W 138°27'1 1.2 28.6
2017-Sep-16 14:00N 11°10' W 138°27'0 0.0 28.7
2017-Sep-16 13:00N 11°10' W 138°27'1 0.8 28.6
2017-Sep-16 12:00N 11°10' W 138°28'2 0.4 28.6
2017-Sep-16 07:00N 11°12' W 138°28'0 0.0 28.7
2017-Sep-16 06:00N 11°12' W 138°28'1 1.3 28.7
2017-Sep-16 05:00N 11°13' W 138°28'0 0.0 28.7
2017-Sep-16 04:00N 11°13' W 138°28'1 0.8 28.7
2017-Sep-16 03:00N 11°14' W 138°28'0 0.0 28.7
2017-Sep-16 02:00N 11°14' W 138°28'2 0.9 28.8
2017-Sep-16 00:00N 11°13' W 138°30'0 0.0 28.8
2017-Sep-15 23:00N 11°13' W 138°30'1 0.3 28.8
2017-Sep-15 19:00N 11°12' W 138°29'0 0.0 28.6
2017-Sep-15 18:00N 11°12' W 138°29'1 0.8 28.6
2017-Sep-15 17:00N 11°11' W 138°29'0 0.0 28.6
2017-Sep-15 16:00N 11°11' W 138°29'1 0.8 28.6
2017-Sep-15 15:00N 11°11' W 138°28'0 0.0 28.6
2017-Sep-15 14:00N 11°11' W 138°28'1 0.6 28.7
2017-Sep-15 13:00N 11°10' W 138°28'1 0.6 28.7
2017-Sep-15 12:00N 11°10' W 138°28'3 3.1 28.7
2017-Sep-15 11:00N 11°07' W 138°28'1 0.1 28.7
2017-Sep-15 07:00N 11°07' W 138°27'1 1.3 28.7
2017-Sep-15 06:00N 11°05' W 138°26'1 1.2 28.7
2017-Sep-15 05:00N 11°05' W 138°25'0 0.0 28.7
2017-Sep-15 04:00N 11°05' W 138°25'3 3.2 28.8
2017-Sep-15 03:00N 11°04' W 138°22'2 2.4 28.8
2017-Sep-15 02:00N 11°05' W 138°25'3 1.6 28.9
2017-Sep-15 00:00N 11°04' W 138°22'0 0.0 28.9
2017-Sep-14 23:00N 11°04' W 138°22'4 1.0 28.9
2017-Sep-14 19:00N 11°02' W 138°18'1 1.3 28.7
2017-Sep-14 18:00N 11°01' W 138°17'1 0.6 28.6
2017-Sep-14 17:00N 11°01' W 138°16'1 0.8 28.6
2017-Sep-14 16:00N 11°01' W 138°16'2 2.4 28.6
2017-Sep-14 15:00N 11°01' W 138°13'1 0.6 28.6
2017-Sep-14 14:00N 11°01' W 138°13'0 0.0 28.6
2017-Sep-14 13:00N 11°01' W 138°13'2 1.9 28.6
2017-Sep-14 12:00N 11°01' W 138°11'7 1.4 28.6
2017-Sep-14 07:00N 11°01' W 138°04'0 0.0 28.7
2017-Sep-14 06:00N 11°01' W 138°04'3 2.6 28.7
2017-Sep-14 05:00N 11°02' W 138°01'1 0.6 28.7
2017-Sep-14 04:00N 11°02' W 138°01'0 0.0 28.7
2017-Sep-14 03:00N 11°02' W 138°01'2 2.1 28.7
2017-Sep-14 02:00N 11°03' W 137°59'2 2.4 28.7
2017-Sep-14 01:00N 11°03' W 137°56'0 0.0 28.7
2017-Sep-14 00:00N 11°03' W 137°56'0 0.0 28.7
2017-Sep-13 23:00N 11°03' W 137°56'6 1.4 28.7
2017-Sep-13 19:00N 11°06' W 137°52'1 1.2 28.6
2017-Sep-13 18:00N 11°06' W 137°50'0 0.0 28.6
2017-Sep-13 17:00N 11°06' W 137°50'2 1.9 28.6
2017-Sep-13 16:00N 11°07' W 137°49'2 1.7 28.6
2017-Sep-13 15:00N 11°08' W 137°47'0 0.0 28.6
2017-Sep-13 14:00N 11°08' W 137°47'1 0.8 28.6
2017-Sep-13 13:00N 11°08' W 137°47'1 0.6 28.6
2017-Sep-13 12:00N 11°09' W 137°47'0 0.0 28.6
2017-Sep-13 11:00N 11°09' W 137°47'4 1.1 28.6
2017-Sep-13 07:00N 11°11' W 137°43'1 0.6 28.7
2017-Sep-13 06:00N 11°11' W 137°44'1 0.6 28.7
2017-Sep-13 05:00N 11°11' W 137°43'1 0.6 28.7
2017-Sep-13 04:00N 11°12' W 137°43'1 1.3 28.7
2017-Sep-13 03:00N 11°13' W 137°42'1 0.6 28.7
2017-Sep-13 02:00N 11°13' W 137°41'1 0.6 28.7
2017-Sep-13 01:00N 11°13' W 137°41'0 0.0 28.8
2017-Sep-12 23:00N 11°13' W 137°41'2 0.8 29.0
2017-Sep-12 20:00N 11°14' W 137°39'0 0.0 28.9
2017-Sep-12 19:00N 11°14' W 137°39'   28.8
Track history (hours):
 
Tides and Currents Weather Stations Pressure Air Temp Water Temp Dewpoint Dewpoint Depression Visibility Wind Speed Wind Dir Waves Ship Positions

Drifting buoy 32974

Last reported at 2017-Sep-22 19:00 UTC. Time now 2017-Sep-22 20:40 UTC.
Position N 11°11' W 138°07'.

Water temperature 28.4 ° C

Date/timePositionNaut miles runAvg speedWind from/ knotsBaromVisibWave heightAir tempDewpointWater temp
2017-Sep-22 19:00N 11°11' W 138°07'2 2.4 28.4
2017-Sep-22 18:00N 11°08' W 138°07'0 0.0 28.2
2017-Sep-22 17:00N 11°08' W 138°07'1 1.3 28.1
2017-Sep-22 16:00N 11°07' W 138°07'2 1.7 28.1
2017-Sep-22 15:00N 11°06' W 138°05'1 0.7 28.1
2017-Sep-22 13:00N 11°05' W 138°04'5 4.7 28.1
2017-Sep-22 12:00N 11°05' W 137°59'2 0.4 28.2
2017-Sep-22 07:00N 11°05' W 137°58'2 0.9 28.2
2017-Sep-22 05:00N 11°05' W 137°56'2 1.9 28.3
2017-Sep-22 04:00N 11°05' W 137°54'0 0.0 28.3
2017-Sep-22 03:00N 11°05' W 137°54'2 2.4 28.3
2017-Sep-22 02:00N 11°06' W 137°52'1 0.8 28.4
2017-Sep-22 01:00N 11°05' W 137°51'2 1.7 28.4
2017-Sep-22 00:00N 11°07' W 137°50'6 5.6 28.4
2017-Sep-21 23:00N 11°10' W 137°45'0 0.0 28.4
2017-Sep-21 19:00N 11°10' W 137°45'2 1.7 28.2
2017-Sep-21 18:00N 11°11' W 137°44'1 0.8 28.2
2017-Sep-21 17:00N 11°11' W 137°43'1 1.3 28.2
2017-Sep-21 16:00N 11°13' W 137°43'2 2.2 28.2
2017-Sep-21 15:00N 11°14' W 137°41'0 0.0 28.2
2017-Sep-21 14:00N 11°14' W 137°41'2 1.9 28.2
2017-Sep-21 13:00N 11°16' W 137°41'5 5.4 28.1
2017-Sep-21 12:00N 11°22' W 137°41'0 0.0 28.1
2017-Sep-21 07:00N 11°22' W 137°41'1 1.2 28.2
2017-Sep-21 06:00N 11°23' W 137°41'0 0.0 28.2
2017-Sep-21 05:00N 11°23' W 137°41'2 1.9 28.2
2017-Sep-21 04:00N 11°25' W 137°41'2 1.7 28.3
2017-Sep-21 03:00N 11°26' W 137°43'0 0.0 28.3
2017-Sep-21 02:00N 11°26' W 137°43'1 1.2 28.3
2017-Sep-21 01:00N 11°27' W 137°43'0 0.0
2017-Sep-21 00:00N 11°27' W 137°43'3 3.0 28.3
2017-Sep-20 23:00N 11°29' W 137°44'1 0.1 28.3
2017-Sep-20 19:00N 11°29' W 137°44'2 1.7 28.2
2017-Sep-20 18:00N 11°31' W 137°45'0 0.0 28.2
2017-Sep-20 17:00N 11°31' W 137°45'1 0.6 28.1
2017-Sep-20 16:00N 11°31' W 137°45'1 1.3 28.1
2017-Sep-20 15:00N 11°32' W 137°46'1 0.6 28.1
2017-Sep-20 14:00N 11°32' W 137°46'1 1.2 28.1
2017-Sep-20 13:00N 11°32' W 137°47'1 1.2 28.1
2017-Sep-20 12:00N 11°32' W 137°49'2 0.5 28.1
2017-Sep-20 07:00N 11°33' W 137°51'1 1.3 28.2
2017-Sep-20 06:00N 11°32' W 137°52'0 0.0 28.2
2017-Sep-20 05:00N 11°32' W 137°52'0 0.0 28.2
2017-Sep-20 04:00N 11°32' W 137°52'2 1.7 28.3
2017-Sep-20 03:00N 11°31' W 137°53'0 0.0 28.3
2017-Sep-20 02:00N 11°31' W 137°53'3 3.4 28.4
2017-Sep-20 01:00N 11°29' W 137°56'4 4.3 28.4
2017-Sep-20 00:00N 11°26' W 137°59'0 0.0 28.4
2017-Sep-19 20:00N 11°26' W 137°59'0 0.0 28.1
2017-Sep-19 19:00N 11°26' W 137°59'1 0.8 28.1
2017-Sep-19 18:00N 11°25' W 137°58'1 0.6 28.1
2017-Sep-19 17:00N 11°25' W 137°58'1 0.6 28.1
2017-Sep-19 16:00N 11°25' W 137°58'1 1.3 28.1
2017-Sep-19 15:00N 11°23' W 137°57'0 0.0 28.1
2017-Sep-19 14:00N 11°23' W 137°57'0 0.0 28.1
2017-Sep-19 13:00N 11°23' W 137°57'3 3.0 28.1
2017-Sep-19 12:00N 11°20' W 137°57'1 0.1 28.1
2017-Sep-19 07:00N 11°20' W 137°56'0 0.0 28.1
2017-Sep-19 06:00N 11°20' W 137°56'1 0.6 28.1
2017-Sep-19 05:00N 11°20' W 137°56'1 0.8 28.1
2017-Sep-19 04:00N 11°21' W 137°55'0 0.0 28.1
2017-Sep-19 03:00N 11°21' W 137°55'1 0.8 28.1
2017-Sep-19 02:00N 11°20' W 137°56'0 0.0 28.1
2017-Sep-19 01:00N 11°20' W 137°56'2 1.7 28.1
2017-Sep-19 00:00N 11°22' W 137°57'2 2.1 28.1
2017-Sep-18 23:00N 11°20' W 137°55'3 0.6 28.1
2017-Sep-18 19:00N 11°22' W 137°57'2 1.9 28.0
2017-Sep-18 18:00N 11°23' W 137°59'0 0.0 28.1
2017-Sep-18 17:00N 11°23' W 137°59'3 1.6 28.1
2017-Sep-18 15:00N 11°24' W 138°02'0 0.0 28.1
2017-Sep-18 14:00N 11°24' W 138°02'1 1.2 28.1
2017-Sep-18 13:00N 11°24' W 138°03'0 0.0 28.1
2017-Sep-18 12:00N 11°24' W 138°03'5 1.4 28.1
2017-Sep-18 08:00N 11°25' W 138°08'1 1.2 28.2
2017-Sep-18 07:00N 11°25' W 138°10'1 0.6 28.3
2017-Sep-18 06:00N 11°25' W 138°09'2 1.8 28.3
2017-Sep-18 05:00N 11°25' W 138°11'3 2.9 28.3
2017-Sep-18 04:00N 11°25' W 138°14'3 3.0 28.3
2017-Sep-18 03:00N 11°25' W 138°17'0 0.0 28.3
2017-Sep-18 02:00N 11°25' W 138°17'2 1.1 28.4
2017-Sep-18 00:00N 11°23' W 138°19'8 2.0 28.4
2017-Sep-17 20:00N 11°18' W 138°25'2 1.7 28.4
2017-Sep-17 19:00N 11°17' W 138°26'3 3.5 28.4
2017-Sep-17 18:00N 11°14' W 138°28'3 1.7 28.3
2017-Sep-17 16:00N 11°11' W 138°29'0 0.0 28.3
2017-Sep-17 15:00N 11°11' W 138°29'0 0.0 28.3
2017-Sep-17 14:00N 11°11' W 138°29'2 2.2 28.3
2017-Sep-17 13:00N 11°09' W 138°31'2 1.9 28.4
2017-Sep-17 12:00N 11°07' W 138°30'4 0.7 28.4
2017-Sep-17 07:00N 11°04' W 138°31'1 0.8 28.5
2017-Sep-17 06:00N 11°03' W 138°30'0 0.0 28.5
2017-Sep-17 05:00N 11°03' W 138°30'0 0.0 28.5
2017-Sep-17 04:00N 11°03' W 138°30'1 0.6 28.5
2017-Sep-17 03:00N 11°02' W 138°30'1 0.8 28.4
2017-Sep-17 02:00N 11°03' W 138°29'1 0.6 28.4
2017-Sep-17 01:00N 11°03' W 138°30'3 2.7 28.5
2017-Sep-17 00:00N 11°05' W 138°29'1 0.1 28.4
2017-Sep-16 19:00N 11°05' W 138°28'2 2.5 28.5
2017-Sep-16 18:00N 11°08' W 138°29'2 0.6 28.6
2017-Sep-16 15:00N 11°08' W 138°27'1 1.2 28.6
2017-Sep-16 14:00N 11°10' W 138°27'0 0.0 28.7
2017-Sep-16 13:00N 11°10' W 138°27'1 0.8 28.6
2017-Sep-16 12:00N 11°10' W 138°28'2 0.4 28.6
2017-Sep-16 07:00N 11°12' W 138°28'0 0.0 28.7
2017-Sep-16 06:00N 11°12' W 138°28'1 1.3 28.7
2017-Sep-16 05:00N 11°13' W 138°28'0 0.0 28.7
2017-Sep-16 04:00N 11°13' W 138°28'1 0.8 28.7
2017-Sep-16 03:00N 11°14' W 138°28'0 0.0 28.7
2017-Sep-16 02:00N 11°14' W 138°28'2 0.9 28.8
2017-Sep-16 00:00N 11°13' W 138°30'0 0.0 28.8
2017-Sep-15 23:00N 11°13' W 138°30'1 0.3 28.8
2017-Sep-15 19:00N 11°12' W 138°29'0 0.0 28.6
2017-Sep-15 18:00N 11°12' W 138°29'1 0.8 28.6
2017-Sep-15 17:00N 11°11' W 138°29'0 0.0 28.6
2017-Sep-15 16:00N 11°11' W 138°29'1 0.8 28.6
2017-Sep-15 15:00N 11°11' W 138°28'0 0.0 28.6
2017-Sep-15 14:00N 11°11' W 138°28'1 0.6 28.7
2017-Sep-15 13:00N 11°10' W 138°28'1 0.6 28.7
2017-Sep-15 12:00N 11°10' W 138°28'3 3.1 28.7
2017-Sep-15 11:00N 11°07' W 138°28'1 0.1 28.7
2017-Sep-15 07:00N 11°07' W 138°27'1 1.3 28.7
2017-Sep-15 06:00N 11°05' W 138°26'1 1.2 28.7
2017-Sep-15 05:00N 11°05' W 138°25'0 0.0 28.7
2017-Sep-15 04:00N 11°05' W 138°25'3 3.2 28.8
2017-Sep-15 03:00N 11°04' W 138°22'2 2.4 28.8
2017-Sep-15 02:00N 11°05' W 138°25'3 1.6 28.9
2017-Sep-15 00:00N 11°04' W 138°22'0 0.0 28.9
2017-Sep-14 23:00N 11°04' W 138°22'4 1.0 28.9
2017-Sep-14 19:00N 11°02' W 138°18'1 1.3 28.7
2017-Sep-14 18:00N 11°01' W 138°17'1 0.6 28.6
2017-Sep-14 17:00N 11°01' W 138°16'1 0.8 28.6
2017-Sep-14 16:00N 11°01' W 138°16'2 2.4 28.6
2017-Sep-14 15:00N 11°01' W 138°13'1 0.6 28.6
2017-Sep-14 14:00N 11°01' W 138°13'0 0.0 28.6
2017-Sep-14 13:00N 11°01' W 138°13'2 1.9 28.6
2017-Sep-14 12:00N 11°01' W 138°11'7 1.4 28.6
2017-Sep-14 07:00N 11°01' W 138°04'0 0.0 28.7
2017-Sep-14 06:00N 11°01' W 138°04'3 2.6 28.7
2017-Sep-14 05:00N 11°02' W 138°01'1 0.6 28.7
2017-Sep-14 04:00N 11°02' W 138°01'0 0.0 28.7
2017-Sep-14 03:00N 11°02' W 138°01'2 2.1 28.7
2017-Sep-14 02:00N 11°03' W 137°59'2 2.4 28.7
2017-Sep-14 01:00N 11°03' W 137°56'0 0.0 28.7
2017-Sep-14 00:00N 11°03' W 137°56'0 0.0 28.7
2017-Sep-13 23:00N 11°03' W 137°56'6 1.4 28.7
2017-Sep-13 19:00N 11°06' W 137°52'1 1.2 28.6
2017-Sep-13 18:00N 11°06' W 137°50'0 0.0 28.6
2017-Sep-13 17:00N 11°06' W 137°50'2 1.9 28.6
2017-Sep-13 16:00N 11°07' W 137°49'2 1.7 28.6
2017-Sep-13 15:00N 11°08' W 137°47'0 0.0 28.6
2017-Sep-13 14:00N 11°08' W 137°47'1 0.8 28.6
2017-Sep-13 13:00N 11°08' W 137°47'1 0.6 28.6
2017-Sep-13 12:00N 11°09' W 137°47'0 0.0 28.6
2017-Sep-13 11:00N 11°09' W 137°47'4 1.1 28.6
2017-Sep-13 07:00N 11°11' W 137°43'1 0.6 28.7
2017-Sep-13 06:00N 11°11' W 137°44'1 0.6 28.7
2017-Sep-13 05:00N 11°11' W 137°43'1 0.6 28.7
2017-Sep-13 04:00N 11°12' W 137°43'1 1.3 28.7
2017-Sep-13 03:00N 11°13' W 137°42'1 0.6 28.7
2017-Sep-13 02:00N 11°13' W 137°41'1 0.6 28.7
2017-Sep-13 01:00N 11°13' W 137°41'0 0.0 28.8
2017-Sep-12 23:00N 11°13' W 137°41'2 0.8 29.0
2017-Sep-12 20:00N 11°14' W 137°39'0 0.0 28.9
2017-Sep-12 19:00N 11°14' W 137°39'   28.8

Dump ship's entire track history